In Rescue
 
Open Full Screen Window  High Contrast Mode
Wind Gusting 19 knots
12
May 20, 2019 3:42 PM EDT
Weather Information
Wind Direction
  290 °
Wind Speed
  12 kt (14 mph)
Wind Gust
  19 kt (22 mph)
Altimeter
30.04 in
Visibility
10 SM
Temperature
10° C
50° F
Dewpoint
05° C
41° F
Humidity
71%
Sky Condition
Overcast @ 2,800 ft
Broken @ 2,300 ft
MVFR

METAR KOEB 201942Z AUTO 29012G19KT 10SM BKN023 OVC028 10/05 A3004 RMK AO2 T00970050

FAA Disclaimer: The data displayed is for advisory purposes only and is not to be used for flight planning or operations.